Time;durP1;ratioP1;P1;durP2;ratioP2;P2;SDS_P1;SDS_P2;PMS_P1;PMS_P2;Temp;Humidity;BMP_temperature;BMP_pressure;BME280_temperature;BME280_humidity;BME280_pressure;Samples;Min_cycle;Max_cycle;Signal;HPM_P1;HPM_P2
2022/03/19 00:01:30;;;;;;;53.28;40.15;;;;;;;5.83;95.70;96957.00;6299536;22;20009;-67
2022/03/19 00:03:55;;;;;;;58.17;40.72;;;;;;;5.74;96.18;96955.72;6273247;22;20007;-66
2022/03/19 00:06:21;;;;;;;50.35;37.35;;;;;;;5.77;96.03;96959.94;6300569;22;20003;-66
2022/03/19 00:08:46;;;;;;;54.22;38.00;;;;;;;5.80;95.74;96954.53;6300447;22;20441;-66
2022/03/19 00:11:12;;;;;;;54.78;38.30;;;;;;;5.83;95.98;96951.75;6300213;22;20462;-66
2022/03/19 00:13:37;;;;;;;51.08;38.33;;;;;;;5.80;96.38;96951.94;6300358;22;20090;-66
2022/03/19 00:16:03;;;;;;;55.33;37.17;;;;;;;5.74;96.16;96974.00;6300285;22;20003;-66
2022/03/19 00:18:29;;;;;;;54.20;37.47;;;;;;;5.79;95.73;96965.06;6300335;22;20078;-66
2022/03/19 00:20:54;;;;;;;52.05;36.85;;;;;;;5.72;96.40;96961.94;6300412;22;20017;-65
2022/03/19 00:23:20;;;;;;;48.33;36.95;;;;;;;5.67;97.45;96964.81;6300280;22;20035;-65
2022/03/19 00:25:45;;;;;;;53.67;38.67;;;;;;;5.60;98.26;96963.41;6300290;22;20037;-65
2022/03/19 00:28:11;;;;;;;49.90;38.08;;;;;;;5.58;98.18;96960.03;6300440;22;20000;-65
2022/03/19 00:30:36;;;;;;;52.58;37.33;;;;;;;5.62;97.09;96961.56;6300088;22;20013;-66
2022/03/19 00:33:01;;;;;;;55.35;39.25;;;;;;;5.65;97.09;96961.44;6300481;22;20659;-65
2022/03/19 00:35:27;;;;;;;49.95;36.10;;;;;;;5.67;96.58;96970.03;6300209;22;20034;-65
2022/03/19 00:37:53;;;;;;;54.60;38.45;;;;;;;5.73;95.90;96961.84;6300534;22;20070;-65
2022/03/19 00:40:21;;;;;;;50.95;38.40;;;;;;;5.66;96.65;96978.78;6300437;22;20076;-65
2022/03/19 00:42:48;;;;;;;53.30;37.78;;;;;;;5.61;97.05;96975.56;6300251;22;20030;-66
2022/03/19 00:45:13;;;;;;;53.63;39.70;;;;;;;5.54;97.84;96967.22;6300705;22;20570;-65
2022/03/19 00:47:39;;;;;;;48.53;35.13;;;;;;;5.58;97.09;96960.03;6300351;22;20003;-65
2022/03/19 00:50:06;;;;;;;50.80;34.53;;;;;;;5.64;96.54;96967.59;6272788;22;20398;-65
2022/03/19 00:52:32;;;;;;;51.22;34.75;;;;;;;5.77;95.53;96964.31;6300190;22;20377;-65
2022/03/19 00:54:57;;;;;;;50.67;34.63;;;;;;;5.69;96.24;96967.31;6300401;22;20003;-65
2022/03/19 00:57:23;;;;;;;41.33;32.38;;;;;;;5.68;96.27;96950.81;6300066;22;20398;-65
2022/03/19 00:59:48;;;;;;;54.00;31.98;;;;;;;5.64;96.34;96954.50;6300086;22;20003;-65
2022/03/19 01:02:14;;;;;;;47.08;31.90;;;;;;;5.57;97.34;96955.75;6300197;22;20054;-65
2022/03/19 01:04:39;;;;;;;50.40;35.35;;;;;;;5.52;97.77;96955.13;6299406;22;20391;-65
2022/03/19 01:07:04;;;;;;;46.47;31.88;;;;;;;5.50;97.72;96960.44;6300262;22;20552;-65
2022/03/19 01:09:30;;;;;;;44.13;31.08;;;;;;;5.49;97.54;96953.53;6300205;22;20440;-65
2022/03/19 01:11:55;;;;;;;48.28;31.60;;;;;;;5.51;96.99;96962.13;6299959;22;20355;-65
2022/03/19 01:14:21;;;;;;;50.38;31.17;;;;;;;5.53;96.83;96956.81;6300051;22;20368;-66
2022/03/19 01:16:46;;;;;;;43.28;31.23;;;;;;;5.48;97.41;96959.66;6300245;22;20003;-65
2022/03/19 01:19:12;;;;;;;47.88;30.90;;;;;;;5.43;97.17;96946.00;6300120;22;20345;-65
2022/03/19 01:21:37;;;;;;;43.75;29.80;;;;;;;5.42;97.40;96950.41;6300148;22;20048;-65
2022/03/19 01:24:03;;;;;;;42.55;29.70;;;;;;;5.44;97.51;96942.47;6299946;22;20131;-65
2022/03/19 01:26:29;;;;;;;46.45;29.45;;;;;;;5.42;97.43;96952.16;6300486;22;20388;-65
2022/03/19 01:28:55;;;;;;;44.53;30.30;;;;;;;5.40;97.24;96944.38;6300280;22;20083;-65
2022/03/19 01:31:26;;;;;;;45.55;30.95;;;;;;;5.42;96.75;96932.13;6299968;22;20015;-65
2022/03/19 01:33:54;;;;;;;44.65;30.20;;;;;;;5.34;98.04;96936.06;6300299;22;20004;-65
2022/03/19 01:36:20;;;;;;;45.58;30.10;;;;;;;5.49;97.05;96950.09;6300121;22;20014;-65
2022/03/19 01:38:45;;;;;;;44.13;31.13;;;;;;;5.55;95.76;96954.97;6299585;22;20479;-66
2022/03/19 01:41:10;;;;;;;43.30;30.27;;;;;;;5.42;96.67;96955.63;6299245;22;20082;-65
2022/03/19 01:43:37;;;;;;;47.80;29.65;;;;;;;5.41;96.64;96959.13;6299788;22;20041;-65
2022/03/19 01:46:02;;;;;;;49.35;30.35;;;;;;;5.39;97.02;96960.97;6300063;22;20026;-65
2022/03/19 01:48:28;;;;;;;47.90;31.40;;;;;;;5.36;96.62;96965.53;6299731;22;20003;-65
2022/03/19 01:50:54;;;;;;;42.55;30.52;;;;;;;5.36;97.17;96947.25;6300449;22;20078;-65
2022/03/19 01:53:19;;;;;;;43.65;30.55;;;;;;;5.35;97.20;96954.22;6299773;22;20347;-65
2022/03/19 01:55:45;;;;;;;43.60;31.05;;;;;;;5.30;97.74;96949.28;6299796;22;20007;-65
2022/03/19 01:58:10;;;;;;;41.05;30.65;;;;;;;5.25;97.62;96958.25;6299325;22;20338;-65
2022/03/19 02:00:37;;;;;;;47.33;31.88;;;;;;;5.22;97.48;96954.00;6299762;22;20010;-65
2022/03/19 02:03:03;;;;;;;44.15;31.42;;;;;;;5.16;98.39;96952.56;6299843;22;20011;-65
2022/03/19 02:05:29;;;;;;;46.15;33.22;;;;;;;5.12;98.69;96953.63;6299546;22;20078;-65
2022/03/19 02:07:55;;;;;;;48.67;34.40;;;;;;;5.10;98.46;96947.66;6299991;22;20007;-65
2022/03/19 02:10:22;;;;;;;51.38;34.15;;;;;;;5.13;98.88;96942.25;6300138;22;20051;-65
2022/03/19 02:12:50;;;;;;;45.10;34.00;;;;;;;5.16;98.01;96944.72;6299694;22;20596;-65
2022/03/19 02:15:16;;;;;;;52.67;34.72;;;;;;;5.11;98.26;96946.72;6272762;22;20038;-65
2022/03/19 02:17:43;;;;;;;49.75;35.03;;;;;;;5.10;98.45;96945.03;6300127;22;20696;-65
2022/03/19 02:20:09;;;;;;;52.08;35.60;;;;;;;5.10;98.46;96952.88;6300217;22;20328;-65
2022/03/19 02:22:34;;;;;;;51.25;35.92;;;;;;;5.06;98.21;96938.28;6299803;22;20022;-65
2022/03/19 02:27:44;;;;;;;51.70;36.33;;;;;;;5.07;97.44;96931.28;6299984;22;20046;-65
2022/03/19 02:30:12;;;;;;;50.58;35.85;;;;;;;4.95;98.22;96933.59;6299703;22;20003;-65
2022/03/19 02:32:40;;;;;;;47.95;34.65;;;;;;;4.93;98.36;96952.84;6299513;22;20451;-65
2022/03/19 02:35:06;;;;;;;52.28;34.00;;;;;;;4.87;98.41;96946.19;6300304;22;20014;-65
2022/03/19 02:37:38;;;;;;;49.42;34.45;;;;;;;4.80;98.42;96953.47;6299858;22;20550;-65
2022/03/19 02:40:04;;;;;;;42.60;33.42;;;;;;;4.82;97.95;96953.38;6300034;22;20451;-65
2022/03/19 02:42:30;;;;;;;48.10;36.42;;;;;;;4.75;98.01;96955.44;6299810;22;20548;-65
2022/03/19 02:44:55;;;;;;;63.80;36.78;;;;;;;4.66;98.28;96948.06;6299592;22;20048;-65
2022/03/19 02:47:21;;;;;;;49.78;35.35;;;;;;;4.59;98.47;96955.34;6299821;22;20101;-65
2022/03/19 02:49:46;;;;;;;44.47;35.25;;;;;;;4.57;98.30;96958.06;6299744;22;20439;-65
2022/03/19 02:52:11;;;;;;;50.58;34.30;;;;;;;4.50;98.17;96956.63;6299790;22;20031;-65
2022/03/19 02:54:37;;;;;;;51.33;37.22;;;;;;;4.40;98.93;96950.19;6299312;22;20007;-65
2022/03/19 02:57:03;;;;;;;53.05;38.35;;;;;;;4.35;99.03;96967.81;6299730;22;20014;-65
2022/03/19 02:59:32;;;;;;;55.28;36.00;;;;;;;4.34;99.20;96963.50;6299884;22;20007;-65
2022/03/19 03:01:59;;;;;;;51.17;36.92;;;;;;;4.25;99.70;96960.41;6299980;22;20023;-65
2022/03/19 03:04:25;;;;;;;49.03;35.83;;;;;;;4.18;99.80;96969.44;6299018;22;20018;-65
2022/03/19 03:06:53;;;;;;;52.25;38.17;;;;;;;4.13;99.92;96974.03;6298992;22;20027;-65
2022/03/19 03:09:20;;;;;;;58.58;35.95;;;;;;;4.13;99.24;96963.59;6299741;22;20048;-65
2022/03/19 03:11:46;;;;;;;52.30;38.42;;;;;;;4.14;98.75;96966.09;6299370;22;20090;-65
2022/03/19 03:14:13;;;;;;;50.03;38.10;;;;;;;4.11;99.34;96968.03;6299483;22;20621;-64
2022/03/19 03:16:40;;;;;;;47.40;37.08;;;;;;;4.05;99.12;96976.97;6299452;22;20052;-65
2022/03/19 03:19:07;;;;;;;58.05;37.05;;;;;;;4.06;99.56;96977.81;6299486;22;20003;-64
2022/03/19 03:21:34;;;;;;;51.67;37.13;;;;;;;3.99;99.39;96975.47;6299083;22;20086;-65
2022/03/19 03:24:01;;;;;;;49.70;37.00;;;;;;;3.94;99.01;96974.84;6299405;22;20090;-65
2022/03/19 03:26:27;;;;;;;58.38;38.50;;;;;;;3.81;100.00;96973.69;6299983;22;20003;-65
2022/03/19 03:28:53;;;;;;;53.00;36.10;;;;;;;3.82;99.63;96972.78;6301014;22;20012;-65
2022/03/19 03:31:18;;;;;;;60.30;38.90;;;;;;;3.86;99.14;96963.91;6300959;22;20135;-65
2022/03/19 03:33:44;;;;;;;48.28;37.78;;;;;;;3.82;99.28;96960.63;6300685;22;20010;-65
2022/03/19 03:36:09;;;;;;;59.80;37.95;;;;;;;3.82;99.19;96959.75;6301024;22;20004;-65
2022/03/19 03:38:35;;;;;;;55.38;38.58;;;;;;;3.80;98.80;96961.59;6300941;22;20006;-65
2022/03/19 03:41:00;;;;;;;55.40;36.90;;;;;;;3.73;98.50;96972.28;6301013;22;20010;-65
2022/03/19 03:43:26;;;;;;;54.30;36.55;;;;;;;3.63;99.01;96972.75;6300913;22;19995;-65
2022/03/19 03:45:51;;;;;;;55.90;37.40;;;;;;;3.46;99.48;96958.72;6300484;22;20004;-65
2022/03/19 03:48:17;;;;;;;52.83;38.30;;;;;;;3.41;100.00;96965.88;6300901;22;20004;-65
2022/03/19 03:50:42;;;;;;;54.97;39.28;;;;;;;3.42;100.00;96976.22;6300728;22;20003;-65
2022/03/19 03:53:08;;;;;;;51.00;39.03;;;;;;;3.49;100.00;96979.41;6300758;22;20010;-65
2022/03/19 03:55:36;;;;;;;52.97;37.00;;;;;;;3.50;99.64;96975.06;6300874;22;20003;-65
2022/03/19 03:58:03;;;;;;;54.45;39.85;;;;;;;3.40;99.71;96969.41;6301198;22;20008;-65
2022/03/19 04:00:30;;;;;;;60.05;40.22;;;;;;;3.29;100.00;96969.88;6300945;22;20435;-65
2022/03/19 04:02:55;;;;;;;48.05;36.42;;;;;;;3.26;100.00;96973.44;6300735;22;19999;-65
2022/03/19 04:05:21;;;;;;;56.13;39.83;;;;;;;3.26;100.00;96978.63;6300898;22;20007;-64
2022/03/19 04:07:46;;;;;;;59.28;38.92;;;;;;;3.35;99.63;96982.63;6273280;22;20335;-65
2022/03/19 04:10:12;;;;;;;56.33;39.35;;;;;;;3.26;99.09;96977.81;6300556;22;20335;-65
2022/03/19 04:12:38;;;;;;;54.92;37.78;;;;;;;3.19;99.58;96984.16;6300451;22;20400;-65
2022/03/19 04:15:05;;;;;;;52.55;38.05;;;;;;;3.17;99.87;96976.44;6300691;22;20010;-65
2022/03/19 04:17:30;;;;;;;52.80;38.55;;;;;;;3.15;99.73;96973.06;6300710;22;20023;-65
2022/03/19 04:19:56;;;;;;;58.08;37.85;;;;;;;3.18;99.29;96979.88;6300749;22;20056;-65
2022/03/19 04:22:22;;;;;;;54.95;37.85;;;;;;;3.15;99.75;96986.91;6300813;22;20055;-64
2022/03/19 04:24:47;;;;;;;52.60;38.80;;;;;;;3.03;99.08;96982.22;6300563;22;20435;-64
2022/03/19 04:27:14;;;;;;;56.53;38.22;;;;;;;2.92;99.81;96979.19;6300812;22;20395;-64
2022/03/19 04:29:40;;;;;;;48.05;35.65;;;;;;;2.82;100.00;96984.78;6300370;22;20085;-64
2022/03/19 04:32:06;;;;;;;48.47;36.30;;;;;;;2.77;100.00;96978.06;6300602;22;20018;-64
2022/03/19 04:34:32;;;;;;;47.83;36.85;;;;;;;2.76;100.00;96984.19;6300242;22;19999;-64
2022/03/19 04:36:57;;;;;;;49.78;37.00;;;;;;;2.77;99.59;96994.53;6300664;22;20099;-64
2022/03/19 04:39:22;;;;;;;48.45;36.83;;;;;;;2.77;99.26;96994.53;6300015;22;20003;-64
2022/03/19 04:41:49;;;;;;;46.15;34.38;;;;;;;2.74;99.30;96994.63;6300424;22;20050;-64
2022/03/19 04:44:16;;;;;;;49.42;35.65;;;;;;;2.70;98.71;96982.66;6301094;22;20355;-64
2022/03/19 04:46:42;;;;;;;51.58;35.08;;;;;;;2.70;98.64;96982.66;6300737;22;20007;-64
2022/03/19 04:49:07;;;;;;;48.45;37.15;;;;;;;2.66;99.13;96988.91;6300626;22;20391;-64
2022/03/19 04:51:37;;;;;;;57.80;35.88;;;;;;;2.64;99.07;96996.75;6300561;22;20320;-64
2022/03/19 04:54:04;;;;;;;43.33;33.83;;;;;;;2.54;99.27;96992.84;6300717;22;20019;-64
2022/03/19 04:56:31;;;;;;;46.10;35.25;;;;;;;2.45;99.80;96991.44;6273327;22;19999;-65
2022/03/19 04:58:58;;;;;;;49.08;35.22;;;;;;;2.40;99.32;96993.38;6273291;22;20011;-64
2022/03/19 05:01:29;;;;;;;47.85;35.03;;;;;;;2.41;99.67;96984.69;6300204;22;20017;-64
2022/03/19 05:03:54;;;;;;;53.55;37.60;;;;;;;2.44;100.00;96989.75;6300583;22;20004;-64
2022/03/19 05:06:21;;;;;;;48.50;34.75;;;;;;;2.40;99.46;96993.38;6300449;22;20074;-64
2022/03/19 05:08:46;;;;;;;49.97;34.78;;;;;;;2.29;99.53;96991.19;6300441;22;20004;-63
2022/03/19 05:11:14;;;;;;;50.33;35.85;;;;;;;2.25;99.94;96992.22;6300549;22;20099;-64
2022/03/19 05:13:40;;;;;;;44.60;33.78;;;;;;;2.22;99.89;96992.34;6300510;22;20030;-64
2022/03/19 05:16:06;;;;;;;47.00;34.55;;;;;;;2.25;100.00;96994.81;6300600;22;20584;-64
2022/03/19 05:18:31;;;;;;;42.97;32.35;;;;;;;2.26;99.86;96997.34;6300457;22;20034;-64
2022/03/19 05:20:57;;;;;;;43.28;33.30;;;;;;;2.18;99.68;96998.53;6300595;22;20010;-64
2022/03/19 05:23:23;;;;;;;46.33;33.15;;;;;;;2.11;100.00;97003.16;6300588;22;20007;-64
2022/03/19 05:25:49;;;;;;;43.65;32.00;;;;;;;2.17;99.69;97008.09;6300042;22;19995;-64
2022/03/19 05:28:15;;;;;;;43.72;32.60;;;;;;;2.16;99.30;97011.59;6300850;22;20078;-64
2022/03/19 05:30:40;;;;;;;51.33;33.92;;;;;;;2.12;99.73;97010.03;6300380;22;20439;-65
2022/03/19 05:33:06;;;;;;;50.78;32.00;;;;;;;2.02;99.83;97014.72;6300440;22;20018;-64
2022/03/19 05:35:31;;;;;;;48.08;33.88;;;;;;;1.98;99.75;97005.31;6300585;22;20014;-64
2022/03/19 05:37:59;;;;;;;47.78;34.25;;;;;;;2.00;99.97;97009.56;6300358;22;20078;-64
2022/03/19 05:40:25;;;;;;;46.58;36.17;;;;;;;2.02;100.00;97014.72;6299871;22;20003;-64
2022/03/19 05:42:50;;;;;;;45.30;34.92;;;;;;;2.07;99.77;97006.75;6300292;22;20450;-64
2022/03/19 05:45:16;;;;;;;48.03;34.25;;;;;;;2.02;100.00;97019.06;6300321;22;19999;-64
2022/03/19 05:47:43;;;;;;;47.47;32.97;;;;;;;1.94;100.00;97017.59;6300573;22;19999;-64
2022/03/19 05:50:09;;;;;;;44.47;34.05;;;;;;;1.95;100.00;97029.69;6299483;22;20081;-64
2022/03/19 05:52:35;;;;;;;43.70;34.85;;;;;;;1.92;100.00;97028.94;6299955;22;20054;-64
2022/03/19 05:55:00;;;;;;;45.78;33.97;;;;;;;1.94;100.00;97033.19;6299522;22;20007;-64
2022/03/19 05:57:25;;;;;;;49.70;34.17;;;;;;;2.02;100.00;97034.66;6300192;22;20003;-64
2022/03/19 05:59:51;;;;;;;48.20;33.05;;;;;;;2.03;100.00;97031.13;6300027;22;20039;-64
2022/03/19 06:02:16;;;;;;;45.13;32.45;;;;;;;2.04;100.00;97032.84;6300286;22;20351;-64
2022/03/19 06:04:42;;;;;;;46.25;33.83;;;;;;;2.04;100.00;97025.03;6299951;22;20030;-64
2022/03/19 06:07:07;;;;;;;51.88;35.50;;;;;;;2.10;100.00;97027.41;6299977;22;20004;-64
2022/03/19 06:09:32;;;;;;;51.22;34.88;;;;;;;2.23;100.00;97040.81;6300083;22;20011;-64
2022/03/19 06:11:58;;;;;;;44.85;35.67;;;;;;;2.28;100.00;97034.53;6299960;22;20015;-65
2022/03/19 06:14:24;;;;;;;47.15;33.80;;;;;;;2.32;100.00;97037.88;6299764;22;20135;-64
2022/03/19 06:16:49;;;;;;;49.72;33.40;;;;;;;2.35;100.00;97037.75;6299802;22;20427;-64
2022/03/19 06:19:16;;;;;;;65.70;32.80;;;;;;;2.41;100.00;97039.28;6300164;22;20079;-64
2022/03/19 06:21:42;;;;;;;52.30;35.42;;;;;;;2.47;100.00;97041.63;6299932;22;20038;-64
2022/03/19 06:24:09;;;;;;;49.05;33.08;;;;;;;2.59;100.00;97040.31;6300002;22;20008;-64
2022/03/19 06:26:35;;;;;;;49.38;33.97;;;;;;;2.62;99.82;97041.94;6299922;22;20006;-64
2022/03/19 06:29:01;;;;;;;42.40;34.00;;;;;;;2.65;99.86;97039.22;6299920;22;19999;-64
2022/03/19 06:31:27;;;;;;;44.95;34.40;;;;;;;2.65;100.00;97037.50;6299979;22;20087;-64
2022/03/19 06:33:52;;;;;;;43.20;33.88;;;;;;;2.72;100.00;97036.34;6299796;22;20015;-64
2022/03/19 06:39:02;;;;;;;51.30;34.97;;;;;;;2.94;100.00;97039.81;6299859;22;20014;-64
2022/03/19 06:41:27;;;;;;;45.20;33.35;;;;;;;3.07;99.77;97041.03;6299470;22;20340;-64
2022/03/19 06:43:52;;;;;;;45.15;34.97;;;;;;;3.11;99.51;97032.19;6299803;22;20003;-64
2022/03/19 06:46:19;;;;;;;51.25;33.20;;;;;;;3.27;99.23;97028.97;6299837;22;20004;-64
2022/03/19 06:48:46;;;;;;;40.78;31.50;;;;;;;3.32;98.70;97034.81;6300022;22;20003;-64
2022/03/19 06:51:12;;;;;;;43.55;32.00;;;;;;;3.43;98.95;97024.81;6299157;22;20004;-65
2022/03/19 06:53:38;;;;;;;52.72;34.58;;;;;;;3.60;97.51;97022.38;6299517;22;20015;-64
2022/03/19 06:56:05;;;;;;;43.92;31.60;;;;;;;3.66;97.24;97022.97;6272399;22;20008;-64
2022/03/19 06:58:32;;;;;;;46.58;35.58;;;;;;;3.73;96.73;97028.75;6299335;22;20007;-64
2022/03/19 07:00:57;;;;;;;49.85;34.30;;;;;;;3.85;95.99;97024.75;6299440;22;20099;-65
2022/03/19 07:03:23;;;;;;;44.50;33.03;;;;;;;3.93;95.63;97025.28;6300350;22;20015;-64
2022/03/19 07:05:49;;;;;;;42.60;32.30;;;;;;;3.99;95.91;97025.00;6300606;22;20054;-65
2022/03/19 07:08:15;;;;;;;45.15;32.08;;;;;;;4.07;95.63;97023.81;6301095;22;20127;-65
2022/03/19 07:10:40;;;;;;;38.65;30.92;;;;;;;4.16;94.97;97020.78;6300725;22;20368;-65
2022/03/19 07:13:06;;;;;;;47.83;34.58;;;;;;;4.34;94.09;97016.50;6300727;22;20094;-65
2022/03/19 07:15:32;;;;;;;40.22;31.83;;;;;;;4.48;93.89;97021.06;6300748;22;20079;-65
2022/03/19 07:18:00;;;;;;;44.65;31.25;;;;;;;4.48;94.14;97020.22;6300690;22;20007;-65
2022/03/19 07:20:26;;;;;;;37.95;29.98;;;;;;;4.49;94.03;97017.53;6301097;22;20026;-65
2022/03/19 07:22:54;;;;;;;37.20;29.85;;;;;;;4.57;93.55;97028.47;6300228;22;20451;-65
2022/03/19 07:25:21;;;;;;;37.03;30.08;;;;;;;4.64;93.03;97022.97;6301026;22;20000;-65
2022/03/19 07:27:49;;;;;;;39.65;30.10;;;;;;;4.71;91.48;97017.38;6301354;22;20015;-65
2022/03/19 07:30:14;;;;;;;41.35;28.98;;;;;;;4.82;90.83;97016.88;6273001;22;20354;-65
2022/03/19 07:32:40;;;;;;;42.50;29.95;;;;;;;5.22;89.49;97021.06;6300330;22;20007;-65
2022/03/19 07:35:07;;;;;;;39.15;29.52;;;;;;;5.70;87.99;97019.50;6300513;22;20465;-65
2022/03/19 07:37:37;;;;;;;37.20;29.15;;;;;;;6.07;85.14;97021.13;6300173;22;19996;-65
2022/03/19 07:40:04;;;;;;;36.45;27.58;;;;;;;6.47;83.43;97019.00;6300400;22;20008;-66
2022/03/19 07:42:30;;;;;;;30.95;26.33;;;;;;;6.99;81.34;97006.56;6300430;22;20498;-65
2022/03/19 07:44:55;;;;;;;36.35;26.13;;;;;;;7.39;77.68;97016.53;6299915;22;20070;-65
2022/03/19 07:47:21;;;;;;;30.23;26.10;;;;;;;7.67;77.83;97015.75;6299929;22;20000;-64
2022/03/19 07:49:46;;;;;;;34.95;26.40;;;;;;;8.10;74.21;97019.34;6300113;22;19995;-65
2022/03/19 07:52:12;;;;;;;33.88;26.05;;;;;;;8.49;71.69;97019.59;6299967;22;20003;-67
2022/03/19 07:54:37;;;;;;;29.52;24.05;;;;;;;8.74;71.68;97026.78;6300080;22;20014;-66
2022/03/19 07:57:04;;;;;;;31.25;26.35;;;;;;;9.00;71.23;97024.28;6299669;22;20003;-66
2022/03/19 07:59:30;;;;;;;30.88;25.50;;;;;;;9.19;69.98;97029.16;6300338;22;20465;-66
2022/03/19 08:01:55;;;;;;;30.88;24.95;;;;;;;9.57;68.53;97025.78;6299019;22;20074;-66
2022/03/19 08:04:22;;;;;;;29.45;24.20;;;;;;;9.53;64.98;97024.31;6300471;22;20443;-66
2022/03/19 08:06:49;;;;;;;28.75;25.73;;;;;;;9.68;65.39;97014.53;6299712;22;20338;-66
2022/03/19 08:09:15;;;;;;;31.27;24.05;;;;;;;9.83;65.40;97022.31;6300310;22;20007;-65
2022/03/19 08:11:40;;;;;;;32.70;24.45;;;;;;;9.71;65.01;97014.31;6300274;22;20351;-65
2022/03/19 08:14:06;;;;;;;29.45;25.52;;;;;;;9.84;62.75;97018.78;6300418;22;20011;-66
2022/03/19 08:16:31;;;;;;;32.25;25.52;;;;;;;10.02;63.41;97014.03;6299212;22;20003;-65
2022/03/19 08:18:57;;;;;;;28.15;24.20;;;;;;;10.14;61.21;97010.53;6298853;22;20102;-68
2022/03/19 08:21:22;;;;;;;30.38;23.60;;;;;;;10.14;62.10;97009.69;6299877;22;20388;-66
2022/03/19 08:23:48;;;;;;;25.55;22.80;;;;;;;10.16;61.57;97013.88;6300551;22;20469;-68
2022/03/19 08:26:14;;;;;;;28.90;24.23;;;;;;;10.07;61.80;97003.19;6301013;22;20031;-68
2022/03/19 08:28:39;;;;;;;27.23;24.25;;;;;;;10.29;61.37;96999.88;6300730;22;20011;-66
2022/03/19 08:31:05;;;;;;;26.42;23.13;;;;;;;10.40;60.36;97004.38;6299914;22;20015;-67
2022/03/19 08:33:31;;;;;;;25.48;22.85;;;;;;;10.55;60.55;97003.34;6299425;22;20410;-69
2022/03/19 08:35:56;;;;;;;25.60;23.10;;;;;;;10.43;59.31;96996.31;6299055;22;20011;-70
2022/03/19 08:41:06;;;;;;;31.33;23.38;;;;;;;10.95;57.10;96994.34;6300479;22;20019;-66
2022/03/19 08:43:31;;;;;;;30.65;22.85;;;;;;;10.87;56.70;97004.59;6299685;22;20007;-72
2022/03/19 08:45:57;;;;;;;27.95;22.27;;;;;;;10.66;58.18;97004.34;6298322;22;20464;-66
2022/03/19 08:48:22;;;;;;;25.83;21.63;;;;;;;10.57;57.80;96992.69;6298979;22;20343;-67
2022/03/19 08:50:48;;;;;;;23.80;21.23;;;;;;;10.45;57.17;96995.25;6299843;22;20007;-67
2022/03/19 08:53:14;;;;;;;25.00;22.30;;;;;;;10.48;58.33;96996.81;6273146;22;20015;-65
2022/03/19 08:55:40;;;;;;;24.38;21.85;;;;;;;10.65;56.41;96994.75;6299295;22;20431;-67
2022/03/19 08:58:05;;;;;;;28.70;22.58;;;;;;;10.67;54.89;96990.22;6300570;22;20007;-65
2022/03/19 09:00:30;;;;;;;24.90;21.92;;;;;;;10.93;55.24;96995.38;6300863;22;20026;-65
2022/03/19 09:02:56;;;;;;;26.70;23.35;;;;;;;11.14;54.51;96988.53;6300522;22;20007;-67
2022/03/19 09:05:22;;;;;;;26.15;22.90;;;;;;;10.94;55.68;96984.75;6298653;22;20003;-65
2022/03/19 09:07:47;;;;;;;25.52;22.98;;;;;;;11.12;55.26;96989.63;6299132;22;20059;-67
2022/03/19 09:10:13;;;;;;;29.27;23.20;;;;;;;11.31;54.64;96973.28;6299947;22;20011;-66
2022/03/19 09:12:39;;;;;;;29.02;21.38;;;;;;;11.30;54.18;96975.09;6299951;22;20462;-67
2022/03/19 09:15:07;;;;;;;25.88;23.17;;;;;;;11.73;52.13;96978.88;6297896;22;20039;-67
2022/03/19 09:17:32;;;;;;;23.90;21.15;;;;;;;11.70;51.59;96967.72;6299577;22;19999;-65
2022/03/19 09:19:58;;;;;;;29.25;21.95;;;;;;;11.66;52.76;96969.78;6299143;22;20003;-63
2022/03/19 09:22:23;;;;;;;27.60;22.23;;;;;;;11.97;52.44;96967.41;6300055;22;20014;-63
2022/03/19 09:24:48;;;;;;;29.77;21.88;;;;;;;12.28;50.96;96967.69;6299472;22;20000;-64
2022/03/19 09:27:14;;;;;;;24.98;22.00;;;;;;;12.38;50.93;96973.06;6300273;22;20009;-63
2022/03/19 09:29:42;;;;;;;24.55;22.17;;;;;;;12.68;49.99;96966.28;6300570;22;19999;-65
2022/03/19 09:32:07;;;;;;;25.77;21.85;;;;;;;12.80;48.72;96961.81;6299846;22;20470;-64
2022/03/19 09:34:33;;;;;;;24.98;21.98;;;;;;;12.80;48.63;96960.97;6298246;22;20003;-65
2022/03/19 09:36:58;;;;;;;24.10;21.63;;;;;;;12.96;48.36;96964.03;6299357;22;20007;-64
2022/03/19 09:39:24;;;;;;;27.40;20.85;;;;;;;13.23;48.29;96962.72;6298765;22;20003;-64
2022/03/19 09:41:50;;;;;;;23.98;21.45;;;;;;;13.62;46.48;96959.56;6298384;22;20003;-66
2022/03/19 09:44:17;;;;;;;30.90;22.63;;;;;;;13.71;47.10;96960.59;6298315;22;20090;-65
2022/03/19 09:46:46;;;;;;;25.30;22.50;;;;;;;13.61;45.86;96960.53;6297531;22;20003;-65
2022/03/19 09:49:11;;;;;;;24.50;21.95;;;;;;;13.70;47.33;96958.88;6270550;22;20426;-64
2022/03/19 09:51:40;;;;;;;26.13;22.98;;;;;;;13.67;46.98;96964.44;6297717;22;20060;-65
2022/03/19 09:54:09;;;;;;;26.15;23.35;;;;;;;14.01;46.95;96962.38;6297780;22;20031;-67
2022/03/19 09:56:36;;;;;;;24.23;21.63;;;;;;;14.04;45.56;96953.34;6300217;22;20004;-66
2022/03/19 09:59:02;;;;;;;26.83;21.95;;;;;;;14.24;45.92;96951.59;6299575;22;20028;-66
2022/03/19 10:01:31;;;;;;;25.67;22.52;;;;;;;14.55;44.80;96946.28;6298763;22;20011;-64
2022/03/19 10:04:08;;;;;;;29.13;21.90;;;;;;;14.39;44.88;96940.66;6299199;22;20055;-68
2022/03/19 10:09:31;;;;;;;25.95;20.65;;;;;;;14.61;43.60;96943.06;6299354;22;20351;-66
2022/03/19 10:11:56;;;;;;;27.08;21.52;;;;;;;14.88;43.58;96938.94;6298034;22;20015;-67
2022/03/19 10:14:24;;;;;;;24.75;21.42;;;;;;;14.72;42.63;96939.50;6297897;22;20015;-67
2022/03/19 10:16:51;;;;;;;25.27;21.75;;;;;;;15.13;42.98;96934.06;6299527;22;20014;-66
2022/03/19 10:19:17;;;;;;;26.52;22.83;;;;;;;15.00;43.35;96925.56;6300073;22;20009;-67
2022/03/19 10:21:44;;;;;;;27.05;21.90;;;;;;;15.30;41.98;96923.72;6299273;22;20035;-66
2022/03/19 10:24:25;;;;;;;23.00;20.80;;;;;;;15.46;44.02;96921.34;6298985;22;19999;-66
2022/03/19 10:26:51;;;;;;;24.70;22.10;;;;;;;15.52;43.57;96924.41;6298848;22;20000;-64
2022/03/19 10:29:26;;;;;;;31.25;24.48;;;;;;;15.51;42.93;96920.06;6273080;22;20094;-65
2022/03/19 10:31:58;;;;;;;24.23;21.70;;;;;;;15.51;41.36;96918.25;6298581;22;20024;-66
2022/03/19 10:34:23;;;;;;;27.58;22.42;;;;;;;15.48;41.57;96915.91;6299318;22;20011;-66
2022/03/19 10:36:49;;;;;;;25.75;23.05;;;;;;;15.65;41.91;96910.81;6300472;22;20145;-66
2022/03/19 10:39:24;;;;;;;25.95;23.08;;;;;;;16.21;40.06;96909.09;6301168;22;20010;-66
2022/03/19 10:41:51;;;;;;;30.10;23.45;;;;;;;15.63;40.57;96902.16;6300493;22;20015;-67
2022/03/19 10:44:23;;;;;;;26.50;23.70;;;;;;;15.55;42.20;96892.25;6300729;22;20011;-67
2022/03/19 10:46:54;;;;;;;28.00;22.85;;;;;;;16.17;39.58;96891.78;6272810;22;20068;-67
2022/03/19 10:49:22;;;;;;;27.80;23.02;;;;;;;16.17;39.24;96881.16;6300318;22;20476;-67
2022/03/19 10:51:51;;;;;;;37.00;23.60;;;;;;;15.59;40.53;96878.56;6300586;22;20003;-67
2022/03/19 10:54:17;;;;;;;32.67;23.90;;;;;;;15.59;41.71;96883.88;6300392;22;20003;-67
2022/03/19 10:56:43;;;;;;;34.25;23.05;;;;;;;16.18;38.27;96885.47;6300861;22;19996;-66
2022/03/19 10:59:09;;;;;;;32.58;23.88;;;;;;;14.90;42.76;96870.72;6300025;22;20034;-66
2022/03/19 11:01:36;;;;;;;30.63;22.85;;;;;;;15.11;42.08;96868.91;6299896;22;20003;-66
2022/03/19 11:04:03;;;;;;;32.55;22.63;;;;;;;15.10;42.92;96862.75;6300913;22;20105;-68
2022/03/19 11:06:41;;;;;;;30.13;22.10;;;;;;;15.85;40.14;96864.63;6301040;22;20009;-64
2022/03/19 11:09:10;;;;;;;28.52;21.58;;;;;;;15.74;39.78;96860.34;6299800;22;20506;-66
2022/03/19 11:11:36;;;;;;;24.02;21.55;;;;;;;15.92;40.56;96862.25;6300466;22;20399;-68
2022/03/19 11:14:02;;;;;;;31.63;22.83;;;;;;;16.09;39.91;96855.31;6300468;22;20060;-63
2022/03/19 11:16:35;;;;;;;31.92;22.85;;;;;;;16.56;38.02;96853.50;6300128;22;20003;-63
2022/03/19 11:19:02;;;;;;;26.70;20.45;;;;;;;16.60;37.78;96855.69;6300856;22;20003;-64
2022/03/19 11:21:31;;;;;;;22.42;20.02;;;;;;;16.21;39.70;96855.94;6299412;22;20103;-64
2022/03/19 11:24:06;;;;;;;24.73;21.15;;;;;;;16.45;37.72;96846.56;6272559;22;20011;-62
2022/03/19 11:26:32;;;;;;;23.83;19.20;;;;;;;16.16;37.95;96845.78;6299471;22;20006;-64
2022/03/19 11:28:58;;;;;;;29.02;20.75;;;;;;;16.11;38.81;96855.19;6299332;22;20051;-62